Time;durP1;ratioP1;P1;durP2;ratioP2;P2;SDS_P1;SDS_P2;PMS_P1;PMS_P2;Temp;Humidity;BMP_temperature;BMP_pressure;BME280_temperature;BME280_humidity;BME280_pressure;Samples;Min_cycle;Max_cycle;Signal;HPM_P1;HPM_P2
2022/09/21 00:01:43;;;;;;;4.90;3.60;;;;;;;-145.23;100.00;58621.06;4995983;28;20226;-54
2022/09/21 00:04:09;;;;;;;3.20;2.93;;;;;;;-145.23;100.00;58621.06;4989659;28;20245;-54
2022/09/21 00:06:37;;;;;;;2.90;2.70;;;;;;;-145.23;100.00;58621.06;4995088;28;20228;-54
2022/09/21 00:09:04;;;;;;;3.63;2.87;;;;;;;-145.23;100.00;58621.06;4993558;28;20250;-55
2022/09/21 00:11:33;;;;;;;2.90;2.50;;;;;;;-145.23;100.00;58621.06;4998788;28;20233;-54
2022/09/21 00:14:05;;;;;;;2.43;2.33;;;;;;;-145.23;100.00;58621.06;5000061;28;20226;-54
2022/09/21 00:16:32;;;;;;;3.30;2.97;;;;;;;-145.23;100.00;58621.06;4994606;28;20234;-54
2022/09/21 00:18:59;;;;;;;2.70;2.50;;;;;;;-145.23;100.00;58621.06;4996905;28;20241;-53
2022/09/21 00:21:27;;;;;;;3.30;3.00;;;;;;;-145.23;100.00;58621.06;4995531;28;20233;-54
2022/09/21 00:23:53;;;;;;;3.17;2.87;;;;;;;-145.23;100.00;58621.06;4989529;28;20332;-54
2022/09/21 00:26:22;;;;;;;2.67;2.47;;;;;;;-145.23;100.00;58621.06;4990234;28;20292;-54
2022/09/21 00:28:54;;;;;;;2.53;2.33;;;;;;;-145.23;100.00;58621.06;4989824;28;20253;-55
2022/09/21 00:31:21;;;;;;;2.50;2.30;;;;;;;-145.23;100.00;58621.06;4986772;28;20229;-54
2022/09/21 00:33:47;;;;;;;3.00;2.70;;;;;;;-145.23;100.00;58621.06;4988052;28;20256;-55
2022/09/21 00:36:16;;;;;;;3.27;3.03;;;;;;;-145.23;100.00;58621.06;4998930;28;20229;-54
2022/09/21 00:38:42;;;;;;;3.80;2.77;;;;;;;-145.23;100.00;58621.06;4992410;28;20234;-54
2022/09/21 00:41:10;;;;;;;3.00;2.70;;;;;;;-145.23;100.00;58621.06;5003455;28;20241;-54
2022/09/21 00:43:38;;;;;;;3.63;3.30;;;;;;;-145.23;100.00;58621.06;4997320;28;20237;-54
2022/09/21 00:46:12;;;;;;;3.87;2.97;;;;;;;-145.23;100.00;58621.06;4995640;28;20969;-54
2022/09/21 00:48:39;;;;;;;3.23;3.00;;;;;;;-145.23;100.00;58621.06;4993252;28;20241;-53
2022/09/21 00:51:07;;;;;;;3.43;3.13;;;;;;;-145.23;100.00;58621.06;4992927;28;20234;-53
2022/09/21 00:53:34;;;;;;;2.90;2.50;;;;;;;-145.23;100.00;58621.06;4994422;28;20230;-53
2022/09/21 00:56:03;;;;;;;3.57;3.27;;;;;;;-145.23;100.00;58621.06;4992723;28;20229;-53
2022/09/21 00:58:31;;;;;;;3.10;2.90;;;;;;;-145.23;100.00;58621.06;4995840;28;20403;-55
2022/09/21 01:00:59;;;;;;;3.37;3.13;;;;;;;-145.23;100.00;58621.06;5000145;28;20245;-54
2022/09/21 01:03:28;;;;;;;7.50;3.37;;;;;;;-145.23;100.00;58621.06;4999750;28;20237;-55
2022/09/21 01:05:54;;;;;;;3.63;3.13;;;;;;;-145.23;100.00;58621.06;5002686;28;20681;-54
2022/09/21 01:08:21;;;;;;;4.30;3.60;;;;;;;-145.23;100.00;58621.06;5003851;28;20228;-54
2022/09/21 01:11:00;;;;;;;3.80;3.27;;;;;;;-145.23;100.00;58621.06;4993321;28;20233;-56
2022/09/21 01:13:34;;;;;;;2.63;2.43;;;;;;;-145.23;100.00;58621.06;4987411;28;20229;-54
2022/09/21 01:16:04;;;;;;;3.50;2.93;;;;;;;-145.23;100.00;58621.06;5006403;28;20913;-56
2022/09/21 01:18:35;;;;;;;3.07;2.83;;;;;;;-145.23;100.00;58621.06;4993331;28;20723;-54
2022/09/21 01:21:17;;;;;;;2.90;2.70;;;;;;;-145.23;100.00;58621.06;5017775;28;20471;-55
2022/09/21 01:24:20;;;;;;;3.67;3.37;;;;;;;-145.23;100.00;58621.06;4997629;28;20229;-55
2022/09/21 01:27:23;;;;;;;3.10;2.60;;;;;;;-145.23;100.00;58621.06;4965706;28;20229;-55
2022/09/21 01:29:53;;;;;;;3.03;2.83;;;;;;;-145.23;100.00;58621.06;4993588;28;20255;-55
2022/09/21 01:32:22;;;;;;;3.60;2.90;;;;;;;-145.23;100.00;58621.06;4989752;28;20786;-55
2022/09/21 01:34:52;;;;;;;2.87;2.67;;;;;;;-145.23;100.00;58621.06;4996842;28;20241;-55
2022/09/21 01:37:22;;;;;;;2.70;2.50;;;;;;;-145.23;100.00;58621.06;4994541;28;20248;-54
2022/09/21 01:39:53;;;;;;;3.20;2.53;;;;;;;-145.23;100.00;58621.06;4992603;28;20234;-55
2022/09/21 01:42:20;;;;;;;2.53;2.33;;;;;;;-145.23;100.00;58621.06;4991391;28;20241;-54
2022/09/21 01:44:47;;;;;;;3.10;2.70;;;;;;;-145.23;100.00;58621.06;4995722;28;20746;-54
2022/09/21 01:47:17;;;;;;;2.93;2.73;;;;;;;-145.23;100.00;58621.06;4991364;28;20770;-54
2022/09/21 01:49:46;;;;;;;3.43;2.37;;;;;;;-145.23;100.00;58621.06;4988459;28;20658;-55
2022/09/21 01:52:15;;;;;;;4.20;2.90;;;;;;;-145.23;100.00;58621.06;4992886;28;20236;-54
2022/09/21 01:54:47;;;;;;;4.40;2.93;;;;;;;-145.23;100.00;58621.06;4992194;28;20246;-55
2022/09/21 01:57:17;;;;;;;2.20;2.10;;;;;;;-145.23;100.00;58621.06;4993740;28;20222;-54
2022/09/21 01:59:49;;;;;;;3.20;2.90;;;;;;;-145.23;100.00;58621.06;4988949;28;20233;-54
2022/09/21 02:02:19;;;;;;;5.00;2.60;;;;;;;-145.23;100.00;58621.06;4994423;28;20226;-54
2022/09/21 02:04:46;;;;;;;3.60;2.83;;;;;;;-145.23;100.00;58621.06;4985215;28;20238;-55
2022/09/21 02:07:12;;;;;;;3.70;2.60;;;;;;;-145.23;100.00;58621.06;4988295;28;20234;-55
2022/09/21 02:09:39;;;;;;;2.70;2.10;;;;;;;-145.23;100.00;58621.06;4990558;28;20295;-54
2022/09/21 02:12:05;;;;;;;2.60;2.40;;;;;;;-145.23;100.00;58621.06;4993359;28;20230;-55
2022/09/21 02:14:33;;;;;;;3.20;3.00;;;;;;;-145.23;100.00;58621.06;4995580;28;20229;-54
2022/09/21 02:17:06;;;;;;;2.70;2.50;;;;;;;-145.23;100.00;58621.06;4992850;28;20316;-54
2022/09/21 02:19:41;;;;;;;4.20;3.23;;;;;;;-145.23;100.00;58621.06;4986487;28;20333;-54
2022/09/21 02:22:12;;;;;;;3.03;2.80;;;;;;;-145.23;100.00;58621.06;4995048;28;22457;-54
2022/09/21 02:24:42;;;;;;;2.67;2.47;;;;;;;-145.23;100.00;58621.06;4994052;28;20225;-54
2022/09/21 02:27:19;;;;;;;3.03;2.60;;;;;;;-145.23;100.00;58621.06;4996609;28;20320;-54
2022/09/21 02:29:49;;;;;;;3.77;2.27;;;;;;;-145.23;100.00;58621.06;4988481;28;20244;-54
2022/09/21 02:32:25;;;;;;;2.77;2.57;;;;;;;-145.23;100.00;58621.06;4989266;28;20226;-54
2022/09/21 02:34:59;;;;;;;2.00;1.90;;;;;;;-145.23;100.00;58621.06;4992781;28;20232;-54
2022/09/21 02:37:32;;;;;;;2.70;2.50;;;;;;;-145.23;100.00;58621.06;4987241;28;20237;-54
2022/09/21 02:40:02;;;;;;;2.63;2.43;;;;;;;-145.23;100.00;58621.06;4988548;28;20229;-54
2022/09/21 02:42:31;;;;;;;2.87;2.50;;;;;;;-145.23;100.00;58621.06;4984609;28;20233;-55
2022/09/21 02:45:03;;;;;;;3.17;2.67;;;;;;;-145.23;100.00;58621.06;4991323;28;20720;-54
2022/09/21 02:47:34;;;;;;;2.23;2.07;;;;;;;-145.23;100.00;58621.06;4989784;28;20317;-54
2022/09/21 02:50:04;;;;;;;3.13;2.80;;;;;;;-145.23;100.00;58621.06;4988530;28;20237;-54
2022/09/21 02:52:32;;;;;;;2.60;2.40;;;;;;;-145.23;100.00;58621.06;4994022;28;20230;-55
2022/09/21 02:54:59;;;;;;;2.80;2.57;;;;;;;-145.23;100.00;58621.06;4988939;28;20245;-55
2022/09/21 02:57:26;;;;;;;3.80;2.50;;;;;;;-145.23;100.00;58621.06;4992093;28;20620;-55
2022/09/21 02:59:53;;;;;;;5.00;2.80;;;;;;;-145.23;100.00;58621.06;4988666;28;20241;-54
2022/09/21 03:02:19;;;;;;;3.43;2.73;;;;;;;-145.23;100.00;58621.06;4993769;28;20237;-54
2022/09/21 03:04:47;;;;;;;2.93;2.57;;;;;;;-145.23;100.00;58621.06;4990751;28;20336;-55
2022/09/21 03:07:15;;;;;;;2.57;2.37;;;;;;;-145.23;100.00;58621.06;4985012;28;20242;-55
2022/09/21 03:09:42;;;;;;;2.77;2.57;;;;;;;-145.23;100.00;58621.06;4997429;28;20244;-54
2022/09/21 03:12:08;;;;;;;2.83;2.63;;;;;;;-145.23;100.00;58621.06;4989811;28;20234;-54
2022/09/21 03:14:35;;;;;;;2.83;2.63;;;;;;;-145.23;100.00;58621.06;4990936;28;20247;-54
2022/09/21 03:17:01;;;;;;;2.53;2.33;;;;;;;-145.23;100.00;58621.06;4992506;28;20579;-54
2022/09/21 03:19:28;;;;;;;2.57;2.33;;;;;;;-145.23;100.00;58621.06;4989494;28;20236;-54
2022/09/21 03:21:54;;;;;;;2.60;2.40;;;;;;;-145.23;100.00;58621.06;4992191;28;20241;-54
2022/09/21 03:27:03;;;;;;;2.70;2.33;;;;;;;-145.23;100.00;58621.06;4991708;28;20249;-54
2022/09/21 03:29:29;;;;;;;2.70;2.50;;;;;;;-145.23;100.00;58621.06;4991587;28;20245;-54
2022/09/21 03:31:56;;;;;;;5.50;2.33;;;;;;;-145.23;100.00;58621.06;4988454;28;20265;-54
2022/09/21 03:34:22;;;;;;;3.17;2.80;;;;;;;-145.23;100.00;58621.06;4989612;28;20233;-54
2022/09/21 03:36:49;;;;;;;2.67;2.47;;;;;;;-145.23;100.00;58621.06;4993263;28;20229;-54
2022/09/21 03:39:15;;;;;;;2.33;2.23;;;;;;;-145.23;100.00;58621.06;4990130;28;20245;-54
2022/09/21 03:41:43;;;;;;;3.47;2.43;;;;;;;-145.23;100.00;58621.06;4991390;28;20722;-55
2022/09/21 03:44:09;;;;;;;2.03;1.93;;;;;;;-145.23;100.00;58621.06;4998563;28;20307;-54
2022/09/21 03:46:36;;;;;;;3.43;2.73;;;;;;;-145.23;100.00;58621.06;4995247;28;20236;-54
2022/09/21 03:49:03;;;;;;;5.00;3.03;;;;;;;-145.23;100.00;58621.06;4996766;28;20264;-54
2022/09/21 03:51:30;;;;;;;2.70;2.33;;;;;;;-145.23;100.00;58621.06;4994638;28;20764;-54
2022/09/21 03:53:56;;;;;;;2.17;1.97;;;;;;;-145.23;100.00;58621.06;4999341;28;20240;-54
2022/09/21 03:56:23;;;;;;;2.60;2.37;;;;;;;-145.23;100.00;58621.06;5009055;28;20605;-54
2022/09/21 03:58:51;;;;;;;2.57;2.37;;;;;;;-145.23;100.00;58621.06;4993704;28;20677;-54
2022/09/21 04:01:18;;;;;;;3.43;2.30;;;;;;;-145.23;100.00;58621.06;4999327;28;20228;-56
2022/09/21 04:03:44;;;;;;;2.27;2.17;;;;;;;-145.23;100.00;58621.06;5000900;28;20241;-54
2022/09/21 04:06:12;;;;;;;3.70;2.90;;;;;;;-145.23;100.00;58621.06;4991110;28;20648;-54
2022/09/21 04:08:38;;;;;;;2.97;2.67;;;;;;;-145.23;100.00;58621.06;4989458;28;20249;-54
2022/09/21 04:11:10;;;;;;;2.40;2.20;;;;;;;-145.23;100.00;58621.06;5003308;28;20245;-54
2022/09/21 04:13:37;;;;;;;3.93;2.50;;;;;;;-145.23;100.00;58621.06;4999340;28;20226;-54
2022/09/21 04:16:05;;;;;;;2.70;2.50;;;;;;;-145.23;100.00;58621.06;4989442;28;20237;-54
2022/09/21 04:18:32;;;;;;;3.07;2.77;;;;;;;-145.23;100.00;58621.06;4999916;28;20261;-54
2022/09/21 04:20:58;;;;;;;2.87;2.67;;;;;;;-145.23;100.00;58621.06;5001762;28;20252;-54
2022/09/21 04:23:25;;;;;;;3.27;2.97;;;;;;;-145.23;100.00;58621.06;4996211;28;20236;-54
2022/09/21 04:25:54;;;;;;;3.37;2.60;;;;;;;-145.23;100.00;58621.06;4987983;28;20249;-54
2022/09/21 04:28:21;;;;;;;3.57;3.17;;;;;;;-145.23;100.00;58621.06;4995895;28;20682;-55
2022/09/21 04:30:48;;;;;;;3.30;3.00;;;;;;;-145.23;100.00;58621.06;4996405;28;20296;-54
2022/09/21 04:33:15;;;;;;;2.67;2.30;;;;;;;-145.23;100.00;58621.06;5007236;28;20720;-54
2022/09/21 04:35:42;;;;;;;2.97;2.67;;;;;;;-145.23;100.00;58621.06;4991836;28;20229;-54
2022/09/21 04:38:08;;;;;;;2.80;2.60;;;;;;;-145.23;100.00;58621.06;4998747;28;21250;-54
2022/09/21 04:40:35;;;;;;;3.13;2.83;;;;;;;-145.23;100.00;58621.06;4997316;28;20528;-54
2022/09/21 04:43:01;;;;;;;5.23;3.00;;;;;;;-145.23;100.00;58621.06;4991084;28;20245;-54
2022/09/21 04:45:28;;;;;;;3.27;2.93;;;;;;;-145.23;100.00;58621.06;4991771;28;20233;-54
2022/09/21 04:47:54;;;;;;;4.03;2.53;;;;;;;-145.23;100.00;58621.06;4995669;28;20233;-54
2022/09/21 04:50:22;;;;;;;4.83;3.27;;;;;;;-145.23;100.00;58621.06;5001051;28;20685;-54
2022/09/21 04:52:49;;;;;;;2.70;2.47;;;;;;;-145.23;100.00;58621.06;4990267;28;20248;-54
2022/09/21 04:55:16;;;;;;;3.70;3.13;;;;;;;-145.23;100.00;58621.06;4995662;28;20240;-54
2022/09/21 04:57:43;;;;;;;2.63;2.10;;;;;;;-145.23;100.00;58621.06;5001949;28;20317;-54
2022/09/21 05:00:10;;;;;;;4.07;2.93;;;;;;;-145.23;100.00;58621.06;4993235;28;20328;-54
2022/09/21 05:02:37;;;;;;;4.67;2.90;;;;;;;-145.23;100.00;58621.06;4993059;28;20229;-53
2022/09/21 05:05:04;;;;;;;4.47;2.50;;;;;;;-145.23;100.00;58621.06;4989326;28;20656;-54
2022/09/21 05:07:32;;;;;;;2.90;2.60;;;;;;;-145.23;100.00;58621.06;4994952;28;20248;-54
2022/09/21 05:10:03;;;;;;;3.00;2.70;;;;;;;-145.23;100.00;58621.06;4993177;28;20238;-54
2022/09/21 05:12:30;;;;;;;3.83;3.17;;;;;;;-145.23;100.00;58621.06;4994987;28;20705;-54
2022/09/21 05:14:56;;;;;;;3.77;3.03;;;;;;;-145.23;100.00;58621.06;4991113;28;20229;-54
2022/09/21 05:17:23;;;;;;;4.07;3.67;;;;;;;-145.23;100.00;58621.06;4999794;28;20238;-54
2022/09/21 05:19:50;;;;;;;4.87;3.63;;;;;;;-145.23;100.00;58621.06;4983673;28;20564;-55
2022/09/21 05:22:17;;;;;;;4.33;3.97;;;;;;;-145.23;100.00;58621.06;5008935;28;20244;-54
2022/09/21 05:24:44;;;;;;;4.70;4.30;;;;;;;-145.23;100.00;58621.06;4991097;28;20226;-53
2022/09/21 05:27:11;;;;;;;29.73;21.00;;;;;;;-145.23;100.00;58621.06;4987601;28;20593;-54
2022/09/21 05:29:38;;;;;;;25.27;17.50;;;;;;;-145.23;100.00;58621.06;4994406;28;20249;-54
2022/09/21 05:32:08;;;;;;;7.80;5.67;;;;;;;-145.23;100.00;58621.06;4994077;28;20776;-54
2022/09/21 05:34:42;;;;;;;4.97;4.00;;;;;;;-145.23;100.00;58621.06;4986829;28;20245;-54
2022/09/21 05:37:17;;;;;;;3.67;3.20;;;;;;;-145.23;100.00;58621.06;4991109;28;20244;-54
2022/09/21 05:39:46;;;;;;;3.80;3.50;;;;;;;-145.23;100.00;58621.06;4989761;28;20246;-54
2022/09/21 05:42:13;;;;;;;5.53;4.43;;;;;;;-145.23;100.00;58621.06;4983744;28;20633;-54
2022/09/21 05:44:40;;;;;;;7.67;4.30;;;;;;;-145.23;100.00;58621.06;4985490;28;20237;-54
2022/09/21 05:47:23;;;;;;;5.37;3.90;;;;;;;-145.23;100.00;58621.06;4987641;28;20242;-54
2022/09/21 05:49:54;;;;;;;5.60;4.17;;;;;;;-145.23;100.00;58621.06;4988433;28;20291;-54
2022/09/21 05:52:24;;;;;;;5.17;4.50;;;;;;;-145.23;100.00;58621.06;4990523;28;20236;-54
2022/09/21 05:55:00;;;;;;;4.27;3.87;;;;;;;-145.23;100.00;58621.06;4997845;28;20236;-54
2022/09/21 05:57:37;;;;;;;4.47;3.77;;;;;;;-145.23;100.00;58621.06;4988183;28;20243;-55
2022/09/21 06:00:12;;;;;;;3.70;3.30;;;;;;;-145.23;100.00;58621.06;4980888;28;20263;-55
2022/09/21 06:02:57;;;;;;;4.80;3.47;;;;;;;-145.23;100.00;58621.06;4997611;28;20251;-54
2022/09/21 06:05:24;;;;;;;7.00;4.30;;;;;;;-145.23;100.00;58621.06;4987496;28;20222;-55
2022/09/21 06:07:51;;;;;;;4.23;3.80;;;;;;;-145.23;100.00;58621.06;4993333;28;20237;-55
2022/09/21 06:10:19;;;;;;;4.07;3.13;;;;;;;-145.23;100.00;58621.06;4992073;28;20238;-55
2022/09/21 06:12:45;;;;;;;4.27;3.73;;;;;;;-145.23;100.00;58621.06;4989980;28;20228;-56
2022/09/21 06:15:14;;;;;;;3.33;3.13;;;;;;;-145.23;100.00;58621.06;4997086;28;20233;-54
2022/09/21 06:17:40;;;;;;;4.23;3.83;;;;;;;-145.23;100.00;58621.06;4990358;28;20723;-54
2022/09/21 06:20:08;;;;;;;4.93;4.43;;;;;;;-145.23;100.00;58621.06;4996907;28;20253;-54
2022/09/21 06:22:35;;;;;;;4.73;3.93;;;;;;;-145.23;100.00;58621.06;4999135;28;20252;-53
2022/09/21 06:25:02;;;;;;;4.23;3.70;;;;;;;-145.23;100.00;58621.06;4988454;28;20238;-54
2022/09/21 06:27:30;;;;;;;6.37;4.47;;;;;;;-145.23;100.00;58621.06;5002456;28;20237;-53
2022/09/21 06:29:56;;;;;;;3.77;3.47;;;;;;;-145.23;100.00;58621.06;4991071;28;20233;-59
2022/09/21 06:32:23;;;;;;;5.30;3.70;;;;;;;-145.23;100.00;58621.06;4987918;28;20599;-54
2022/09/21 06:34:49;;;;;;;4.50;3.17;;;;;;;-145.23;100.00;58621.06;4996990;28;20237;-54
2022/09/21 06:37:16;;;;;;;6.57;3.67;;;;;;;-145.23;100.00;58621.06;4992574;28;20229;-53
2022/09/21 06:39:42;;;;;;;6.93;3.43;;;;;;;-145.23;100.00;58621.06;5006187;28;20234;-54
2022/09/21 06:42:09;;;;;;;5.90;3.47;;;;;;;-145.23;100.00;58621.06;4998477;28;20244;-54
2022/09/21 06:44:37;;;;;;;3.00;2.60;;;;;;;-145.23;100.00;58621.06;4991682;28;20221;-55
2022/09/21 06:47:03;;;;;;;3.40;3.10;;;;;;;-145.23;100.00;58621.06;4992674;28;20269;-55
2022/09/21 06:49:30;;;;;;;5.63;3.87;;;;;;;-145.23;100.00;58621.06;4989810;28;20259;-55
2022/09/21 06:51:57;;;;;;;6.20;4.20;;;;;;;-145.23;100.00;58621.06;4991985;28;20320;-55
2022/09/21 06:54:23;;;;;;;4.17;3.77;;;;;;;-145.23;100.00;58621.06;4995341;28;20731;-55
2022/09/21 06:56:50;;;;;;;4.90;4.40;;;;;;;-145.23;100.00;58621.06;4995602;28;20608;-55
2022/09/21 06:59:16;;;;;;;4.53;4.13;;;;;;;-145.23;100.00;58621.06;4988486;28;20237;-55
2022/09/21 07:01:44;;;;;;;5.37;4.57;;;;;;;-145.23;100.00;58621.06;4990442;28;20621;-55
2022/09/21 07:04:11;;;;;;;7.37;6.27;;;;;;;-145.23;100.00;58621.06;4997416;28;20830;-56
2022/09/21 07:06:37;;;;;;;6.60;4.50;;;;;;;-145.23;100.00;58621.06;4984544;28;20269;-56
2022/09/21 07:09:06;;;;;;;3.97;3.67;;;;;;;-145.23;100.00;58621.06;4991795;28;20241;-56
2022/09/21 07:11:32;;;;;;;4.77;3.70;;;;;;;-145.23;100.00;58621.06;4983628;28;20260;-55
2022/09/21 07:13:59;;;;;;;8.27;3.93;;;;;;;-145.23;100.00;58621.06;4990852;28;20298;-55
2022/09/21 07:16:26;;;;;;;4.37;3.53;;;;;;;-145.23;100.00;58621.06;4985182;28;20772;-55
2022/09/21 07:18:54;;;;;;;4.77;3.40;;;;;;;-145.23;100.00;58621.06;4993990;28;20260;-55
2022/09/21 07:21:21;;;;;;;4.23;3.27;;;;;;;-145.23;100.00;58621.06;4996223;28;20888;-55
2022/09/21 07:23:48;;;;;;;6.03;3.30;;;;;;;-145.23;100.00;58621.06;4998818;28;20244;-55
2022/09/21 07:26:14;;;;;;;3.83;3.50;;;;;;;-145.23;100.00;58621.06;4994323;28;20321;-55
2022/09/21 07:28:41;;;;;;;4.53;3.60;;;;;;;-145.23;100.00;58621.06;4993340;28;20246;-55
2022/09/21 07:31:09;;;;;;;4.37;3.13;;;;;;;-145.23;100.00;58621.06;4992225;28;20229;-56
2022/09/21 07:33:36;;;;;;;4.03;3.40;;;;;;;-145.23;100.00;58621.06;4990771;28;20225;-55
2022/09/21 07:36:09;;;;;;;3.93;2.83;;;;;;;-145.23;100.00;58621.06;5001901;28;20617;-55
2022/09/21 07:38:36;;;;;;;5.00;3.47;;;;;;;-145.23;100.00;58621.06;4991526;28;20340;-55
2022/09/21 07:41:03;;;;;;;3.30;3.00;;;;;;;-145.23;100.00;58621.06;4987388;28;20268;-55
2022/09/21 07:43:30;;;;;;;5.03;4.10;;;;;;;-145.23;100.00;58621.06;4994404;28;20237;-55
2022/09/21 07:45:56;;;;;;;4.67;3.97;;;;;;;-145.23;100.00;58621.06;4998611;28;20950;-55
2022/09/21 07:48:23;;;;;;;3.97;3.57;;;;;;;-145.23;100.00;58621.06;4996887;28;20743;-55
2022/09/21 07:50:50;;;;;;;5.13;4.00;;;;;;;-145.23;100.00;58621.06;4986501;28;20241;-56
2022/09/21 07:53:17;;;;;;;5.43;4.40;;;;;;;-145.23;100.00;58621.06;5002670;28;20512;-55
2022/09/21 07:55:44;;;;;;;6.13;3.97;;;;;;;-145.23;100.00;58621.06;5013430;28;20240;-55
2022/09/21 08:00:57;;;;;;;4.83;4.03;;;;;;;-145.23;100.00;58621.06;4998827;28;20236;-55
2022/09/21 08:03:23;;;;;;;4.07;3.77;;;;;;;-145.23;100.00;58621.06;4992810;28;20230;-55
2022/09/21 08:05:51;;;;;;;7.10;4.00;;;;;;;-145.23;100.00;58621.06;4992651;28;20233;-55
2022/09/21 08:08:19;;;;;;;6.43;3.70;;;;;;;-145.23;100.00;58621.06;4999372;28;20321;-55
2022/09/21 08:10:46;;;;;;;5.10;3.97;;;;;;;-145.23;100.00;58621.06;4993096;28;20692;-55
2022/09/21 08:13:12;;;;;;;6.93;5.13;;;;;;;-145.23;100.00;58621.06;4998217;28;20240;-56
2022/09/21 08:15:39;;;;;;;3.97;3.57;;;;;;;-145.23;100.00;58621.06;4997415;28;20244;-56
2022/09/21 08:18:06;;;;;;;4.53;4.13;;;;;;;-145.23;100.00;58621.06;4985239;28;20268;-56
2022/09/21 08:20:32;;;;;;;5.30;4.20;;;;;;;-145.23;100.00;58621.06;4993922;28;20229;-56
2022/09/21 08:22:59;;;;;;;6.07;4.70;;;;;;;-145.23;100.00;58621.06;4993707;28;20800;-56
2022/09/21 08:25:27;;;;;;;6.80;3.83;;;;;;;-145.23;100.00;58621.06;4994492;28;20320;-55
2022/09/21 08:27:57;;;;;;;5.73;3.17;;;;;;;-145.23;100.00;58621.06;4989007;28;20237;-55
2022/09/21 08:30:26;;;;;;;4.40;3.67;;;;;;;-145.23;100.00;58621.06;4996140;28;20264;-55
2022/09/21 08:32:54;;;;;;;3.60;3.07;;;;;;;-145.23;100.00;58621.06;4998077;28;20719;-56
2022/09/21 08:35:20;;;;;;;3.37;3.07;;;;;;;-145.23;100.00;58621.06;4997958;28;20622;-55
2022/09/21 08:37:49;;;;;;;8.53;3.27;;;;;;;-145.23;100.00;58621.06;4992686;28;20613;-56
2022/09/21 08:40:16;;;;;;;8.53;3.40;;;;;;;-145.23;100.00;58621.06;4993499;28;20245;-55
2022/09/21 08:42:52;;;;;;;7.57;3.80;;;;;;;-145.23;100.00;58621.06;4997297;28;20245;-56
2022/09/21 08:45:21;;;;;;;4.57;3.90;;;;;;;-145.23;100.00;58621.06;4994076;28;20229;-55
2022/09/21 08:47:51;;;;;;;3.33;3.03;;;;;;;-145.23;100.00;58621.06;4995402;28;20236;-55
2022/09/21 08:50:29;;;;;;;3.90;3.60;;;;;;;-145.23;100.00;58621.06;4990475;28;20288;-56
2022/09/21 08:53:00;;;;;;;6.17;3.93;;;;;;;-145.23;100.00;58621.06;4999831;28;20298;-55
2022/09/21 08:55:27;;;;;;;3.90;3.60;;;;;;;-145.23;100.00;58621.06;4992753;28;20261;-55
2022/09/21 08:57:55;;;;;;;3.70;3.40;;;;;;;-145.23;100.00;58621.06;4988757;28;20744;-56
2022/09/21 09:00:21;;;;;;;3.43;3.13;;;;;;;-145.23;100.00;58621.06;4985616;28;20238;-55
2022/09/21 09:03:09;;;;;;;4.27;3.30;;;;;;;-145.23;100.00;58621.06;4996068;28;20956;-55
2022/09/21 09:05:41;;;;;;;3.00;2.77;;;;;;;-145.23;100.00;58621.06;4991347;28;20238;-55
2022/09/21 09:08:20;;;;;;;3.53;2.70;;;;;;;-145.23;100.00;58621.06;4990915;28;20230;-55
2022/09/21 09:10:55;;;;;;;3.80;3.47;;;;;;;-145.23;100.00;58621.06;4993013;28;20229;-55
2022/09/21 09:13:39;;;;;;;2.97;2.63;;;;;;;-145.23;100.00;58621.06;4985949;28;20243;-55
2022/09/21 09:16:12;;;;;;;3.50;3.00;;;;;;;-145.23;100.00;58621.06;4995258;28;20233;-55
2022/09/21 09:18:44;;;;;;;3.17;2.87;;;;;;;-145.23;100.00;58621.06;4992996;28;20325;-55
2022/09/21 09:21:15;;;;;;;5.85;3.65;;;;;;;-145.23;100.00;58621.06;4991705;28;20249;-55
2022/09/21 09:23:45;;;;;;;6.00;3.65;;;;;;;-145.23;100.00;58621.06;4994224;28;20238;-55
2022/09/21 09:26:18;;;;;;;3.10;2.90;;;;;;;-145.23;100.00;58621.06;5006416;28;20236;-56
2022/09/21 09:28:48;;;;;;;4.15;3.55;;;;;;;-145.23;100.00;58621.06;5007897;28;20234;-55
2022/09/21 09:31:18;;;;;;;3.97;3.53;;;;;;;-145.23;100.00;58621.06;4995746;28;20244;-56
2022/09/21 09:33:51;;;;;;;3.60;3.22;;;;;;;-145.23;100.00;58621.06;5000065;28;20222;-55
2022/09/21 09:36:18;;;;;;;3.25;2.92;;;;;;;-145.23;100.00;58621.06;5009964;28;20312;-55
2022/09/21 09:38:48;;;;;;;3.30;2.33;;;;;;;-145.23;100.00;58621.06;4995431;28;20243;-55
2022/09/21 09:41:28;;;;;;;3.13;2.00;;;;;;;-145.23;100.00;58621.06;4985906;28;20234;-55
2022/09/21 09:44:08;;;;;;;2.55;2.35;;;;;;;-145.23;100.00;58621.06;4989463;28;20358;-55
2022/09/21 09:46:37;;;;;;;3.05;2.00;;;;;;;-145.23;100.00;58621.06;4992113;28;20230;-56
2022/09/21 09:49:17;;;;;;;2.35;2.08;;;;;;;-145.23;100.00;58621.06;5006219;28;20246;-56
2022/09/21 09:51:43;;;;;;;3.13;1.85;;;;;;;-145.23;100.00;58621.06;5008558;28;20244;-55
2022/09/21 09:54:14;;;;;;;3.10;2.10;;;;;;;-145.23;100.00;58621.06;4989805;28;20619;-55
2022/09/21 09:56:40;;;;;;;1.30;1.20;;;;;;;-145.23;100.00;58621.06;4985684;28;20283;-55
2022/09/21 09:59:14;;;;;;;1.83;1.33;;;;;;;-145.23;100.00;58621.06;4987599;28;20245;-55
2022/09/21 10:01:42;;;;;;;2.03;1.73;;;;;;;-145.23;100.00;58621.06;5003674;28;20244;-56
2022/09/21 10:04:10;;;;;;;5.50;2.83;;;;;;;-145.23;100.00;58621.06;5004669;28;20240;-56
2022/09/21 10:06:37;;;;;;;3.85;1.90;;;;;;;-145.23;100.00;58621.06;4997241;28;20234;-55
2022/09/21 10:09:20;;;;;;;1.77;1.30;;;;;;;-145.23;100.00;58621.06;4990943;28;20245;-55
2022/09/21 10:11:48;;;;;;;2.58;1.60;;;;;;;-145.23;100.00;58621.06;4987252;28;20240;-56
2022/09/21 10:14:18;;;;;;;2.47;1.45;;;;;;;-145.23;100.00;58621.06;4996904;28;20317;-55
2022/09/21 10:16:45;;;;;;;1.25;1.15;;;;;;;-145.23;100.00;58621.06;5003411;28;20221;-55
2022/09/21 10:19:16;;;;;;;2.85;1.20;;;;;;;-145.23;100.00;58621.06;4984103;28;20292;-55
2022/09/21 10:21:44;;;;;;;0.70;0.70;;;;;;;-145.23;100.00;58621.06;4988944;28;20238;-56
2022/09/21 10:24:18;;;;;;;2.30;0.90;;;;;;;-145.23;100.00;58621.06;4993159;28;20682;-56
2022/09/21 10:26:47;;;;;;;1.05;0.70;;;;;;;-145.23;100.00;58621.06;4996983;28;20233;-55
2022/09/21 10:29:28;;;;;;;0.63;0.63;;;;;;;-145.23;100.00;58621.06;4996501;28;20267;-55
2022/09/21 10:31:55;;;;;;;0.77;0.77;;;;;;;-145.23;100.00;58621.06;4995505;28;20452;-54
2022/09/21 10:34:22;;;;;;;0.55;0.55;;;;;;;-145.23;100.00;58621.06;4986479;28;20237;-54
2022/09/21 10:36:51;;;;;;;0.93;0.77;;;;;;;-145.23;100.00;58621.06;4992892;28;20249;-54
2022/09/21 10:39:19;;;;;;;2.20;0.90;;;;;;;-145.23;100.00;58621.06;4996708;28;20263;-55
2022/09/21 10:41:49;;;;;;;0.90;0.90;;;;;;;-145.23;100.00;58621.06;5001190;28;20233;-54
2022/09/21 10:44:16;;;;;;;1.08;0.75;;;;;;;-145.23;100.00;58621.06;4998588;28;20236;-54
2022/09/21 10:46:45;;;;;;;0.85;0.80;;;;;;;-145.23;100.00;58621.06;4996813;28;20229;-54
2022/09/21 10:49:16;;;;;;;1.02;0.60;;;;;;;-145.23;100.00;58621.06;4990533;28;20249;-57
2022/09/21 10:51:45;;;;;;;0.52;0.52;;;;;;;-145.23;100.00;58621.06;4985737;28;21340;-54
2022/09/21 10:54:14;;;;;;;0.75;0.75;;;;;;;-145.23;100.00;58621.06;5001618;28;20240;-54
2022/09/21 10:56:50;;;;;;;1.85;0.35;;;;;;;-145.23;100.00;58621.06;5001318;28;20746;-55
2022/09/21 10:59:22;;;;;;;0.50;0.50;;;;;;;-145.23;100.00;58621.06;4997022;28;20233;-55
2022/09/21 11:01:52;;;;;;;0.40;0.40;;;;;;;-145.23;100.00;58621.06;4991191;28;20232;-54
2022/09/21 11:04:26;;;;;;;1.70;0.68;;;;;;;-145.23;100.00;58621.06;4998198;28;20726;-55
2022/09/21 11:06:57;;;;;;;0.82;0.65;;;;;;;-145.23;100.00;58621.06;4991475;28;20607;-54
2022/09/21 11:09:26;;;;;;;0.57;0.50;;;;;;;-145.23;100.00;58621.06;4995192;28;20241;-58
2022/09/21 11:11:58;;;;;;;0.75;0.52;;;;;;;-145.23;100.00;58621.06;5012988;28;20221;-55
2022/09/21 11:14:35;;;;;;;0.63;0.63;;;;;;;-145.23;100.00;58621.06;4993822;28;20328;-55
2022/09/21 11:17:09;;;;;;;0.88;0.80;;;;;;;-145.23;100.00;58621.06;5012192;28;20226;-54
2022/09/21 11:19:40;;;;;;;1.35;0.70;;;;;;;-145.23;100.00;58621.06;4998477;28;20234;-55
2022/09/21 11:22:09;;;;;;;0.57;0.57;;;;;;;-145.23;100.00;58621.06;4994269;28;20221;-55
2022/09/21 11:24:41;;;;;;;1.17;0.88;;;;;;;-145.23;100.00;58621.06;5008038;28;20232;-55